createdAt,value
2023-03-12T00:00:40.705Z,0.5
2023-03-12T00:02:40.056Z,0.5
2023-03-12T00:04:39.765Z,0.5
2023-03-12T00:06:39.585Z,0.6
2023-03-12T00:08:39.602Z,0.6
2023-03-12T00:10:40.537Z,0.6
2023-03-12T00:12:39.787Z,0.6
2023-03-12T00:14:39.473Z,0.6
2023-03-12T00:16:39.113Z,0.6
2023-03-12T00:18:39.293Z,0.6
2023-03-12T00:20:38.861Z,0.7
2023-03-12T00:22:39.134Z,0.7
2023-03-12T00:24:38.645Z,0.7
2023-03-12T00:26:38.796Z,0.7
2023-03-12T00:28:38.992Z,0.7
2023-03-12T00:30:38.316Z,0.9
2023-03-12T00:32:38.310Z,0.9
2023-03-12T00:34:38.200Z,0.9
2023-03-12T00:36:38.430Z,0.9
2023-03-12T00:38:38.420Z,0.9
2023-03-12T00:40:37.840Z,0.9
2023-03-12T00:42:38.894Z,0.9
2023-03-12T00:44:37.734Z,0.9
2023-03-12T00:46:37.631Z,0.9
2023-03-12T00:48:37.565Z,0.9
2023-03-12T00:50:37.453Z,1
2023-03-12T00:52:37.434Z,1
2023-03-12T00:54:37.191Z,1
2023-03-12T00:56:37.077Z,1
2023-03-12T00:58:37.040Z,1
2023-03-12T01:00:37.382Z,1
2023-03-12T01:02:37.591Z,1.1
2023-03-12T01:04:36.735Z,1.1
2023-03-12T01:06:36.707Z,1.1
2023-03-12T01:08:37.060Z,1.1
2023-03-12T01:10:41.321Z,1.2
2023-03-12T01:12:36.365Z,1.1
2023-03-12T01:14:36.237Z,1.1
2023-03-12T01:16:36.299Z,1.1
2023-03-12T01:18:36.208Z,1.1
2023-03-12T01:20:35.981Z,1.1
2023-03-12T01:22:36.619Z,1.1
2023-03-12T01:24:36.116Z,1.1
2023-03-12T01:26:35.753Z,1.1
2023-03-12T01:28:35.728Z,1.1
2023-03-12T01:30:35.459Z,1.1
2023-03-12T01:32:35.759Z,1.3
2023-03-12T01:34:35.543Z,1.3
2023-03-12T01:36:35.391Z,1.3
2023-03-12T01:38:35.231Z,1.3
2023-03-12T01:40:35.602Z,1.3
2023-03-12T01:42:35.002Z,1.4
2023-03-12T01:44:50.066Z,1.4
2023-03-12T01:46:41.127Z,1.4
2023-03-12T01:48:39.735Z,1.4
2023-03-12T01:50:34.810Z,1.5
2023-03-12T01:52:37.144Z,1.5
2023-03-12T01:54:40.122Z,1.5
2023-03-12T01:56:37.164Z,1.5
2023-03-12T01:58:37.389Z,1.7
2023-03-12T02:00:34.151Z,1.7
2023-03-12T02:02:35.803Z,1.8
2023-03-12T02:04:36.222Z,1.8
2023-03-12T02:06:39.436Z,1.8
2023-03-12T02:08:39.493Z,1.9
2023-03-12T02:10:33.992Z,1.9
2023-03-12T02:12:33.721Z,2.1
2023-03-12T02:14:34.048Z,2.1
2023-03-12T02:16:33.810Z,2
2023-03-12T02:18:34.578Z,2
2023-03-12T02:20:41.201Z,2
2023-03-12T02:22:35.548Z,2
2023-03-12T02:24:39.753Z,2
2023-03-12T02:26:35.669Z,2
2023-03-12T02:28:34.398Z,2
2023-03-12T02:30:34.156Z,2
2023-03-12T02:32:37.641Z,2
2023-03-12T02:34:32.562Z,1.9
2023-03-12T02:36:33.436Z,1.9
2023-03-12T02:38:37.771Z,1.9
2023-03-12T02:40:38.581Z,1.9
2023-03-12T02:42:33.521Z,2
2023-03-12T02:44:33.540Z,2
2023-03-12T02:46:35.517Z,2
2023-03-12T02:48:32.053Z,2
2023-03-12T02:50:32.052Z,2
2023-03-12T02:52:31.997Z,2
2023-03-12T02:54:32.016Z,2
2023-03-12T02:56:32.383Z,2
2023-03-12T02:58:32.237Z,2
2023-03-12T03:00:32.049Z,2
2023-03-12T03:02:31.871Z,2.1
2023-03-12T03:04:32.174Z,2.1
2023-03-12T03:06:32.081Z,2.1
2023-03-12T03:08:31.378Z,2.1
2023-03-12T03:10:31.804Z,2.1
2023-03-12T03:12:32.754Z,2.2
2023-03-12T03:14:31.131Z,2.2
2023-03-12T03:16:32.103Z,2.2
2023-03-12T03:18:31.544Z,2.3
2023-03-12T03:20:31.768Z,2.3
2023-03-12T03:22:30.831Z,2.3
2023-03-12T03:24:30.674Z,2.3
2023-03-12T03:26:30.600Z,2.3
2023-03-12T03:28:30.985Z,2.3
2023-03-12T03:30:30.602Z,2.4
2023-03-12T03:32:30.635Z,2.4
2023-03-12T03:34:30.899Z,2.3
2023-03-12T03:36:37.312Z,2.3
2023-03-12T03:38:31.544Z,2.4
2023-03-12T03:40:30.309Z,2.4
2023-03-12T03:42:30.379Z,2.4
2023-03-12T03:44:30.151Z,2.4
2023-03-12T03:46:34.567Z,2.4
2023-03-12T03:48:30.134Z,2.4
2023-03-12T03:50:31.275Z,2.4
2023-03-12T03:52:30.685Z,2.5
2023-03-12T03:54:29.868Z,2.5
2023-03-12T03:56:30.901Z,2.5
2023-03-12T03:58:29.738Z,2.5
2023-03-12T04:00:29.710Z,2.5
2023-03-12T04:02:30.376Z,2.5
2023-03-12T04:04:29.641Z,2.5
2023-03-12T04:06:29.554Z,2.6
2023-03-12T04:08:29.937Z,2.6
2023-03-12T04:10:29.996Z,2.6
2023-03-12T04:12:29.371Z,2.7
2023-03-12T04:14:29.225Z,2.7
2023-03-12T04:16:29.350Z,2.7
2023-03-12T04:18:29.282Z,2.7
2023-03-12T04:20:29.208Z,2.8
2023-03-12T04:22:29.181Z,2.8
2023-03-12T04:24:29.338Z,2.8
2023-03-12T04:26:29.250Z,2.8
2023-03-12T04:28:29.307Z,2.8
2023-03-12T04:30:28.886Z,2.8
2023-03-12T04:32:28.796Z,2.9
2023-03-12T04:34:29.216Z,2.9
2023-03-12T04:36:29.007Z,2.9
2023-03-12T04:38:29.440Z,2.9
2023-03-12T04:40:28.748Z,2.9
2023-03-12T04:42:28.721Z,2.9
2023-03-12T04:44:28.943Z,2.9
2023-03-12T04:46:28.802Z,2.9
2023-03-12T04:48:28.513Z,2.9
2023-03-12T04:50:28.349Z,3
2023-03-12T04:52:28.608Z,3
2023-03-12T04:54:28.444Z,3
2023-03-12T04:56:28.724Z,3
2023-03-12T04:58:28.126Z,3
2023-03-12T05:00:28.295Z,3
2023-03-12T05:02:28.193Z,3
2023-03-12T05:04:28.612Z,3
2023-03-12T05:06:29.511Z,3.1
2023-03-12T05:08:27.976Z,3.1
2023-03-12T05:10:28.274Z,3.1
2023-03-12T05:12:27.946Z,3.1
2023-03-12T05:14:28.157Z,3.1
2023-03-12T05:16:28.267Z,3.1
2023-03-12T05:18:28.070Z,3.1
2023-03-12T05:20:27.826Z,3.1
2023-03-12T05:22:28.352Z,3.1
2023-03-12T05:24:27.849Z,3.1
2023-03-12T05:26:35.217Z,3.1
2023-03-12T05:28:28.845Z,3.1
2023-03-12T05:30:27.679Z,3.1
2023-03-12T05:32:28.189Z,3.2
2023-03-12T05:34:27.891Z,3.2
2023-03-12T05:36:28.216Z,3.2
2023-03-12T05:38:27.856Z,3.2
2023-03-12T05:40:27.423Z,3.2
2023-03-12T05:42:28.114Z,3.3
2023-03-12T05:44:28.415Z,3.4
2023-03-12T05:46:27.805Z,3.4
2023-03-12T05:48:28.634Z,3.4
2023-03-12T05:50:27.267Z,3.4
2023-03-12T05:52:27.198Z,3.4
2023-03-12T05:54:27.228Z,3.5
2023-03-12T05:56:27.227Z,3.5
2023-03-12T05:58:27.627Z,3.5
2023-03-12T06:00:28.763Z,3.5
2023-03-12T06:02:27.491Z,3.6
2023-03-12T06:04:27.540Z,3.6
2023-03-12T06:06:29.166Z,3.6
2023-03-12T06:08:27.627Z,3.6
2023-03-12T06:10:27.424Z,3.6
2023-03-12T06:12:26.967Z,3.7
2023-03-12T06:14:27.828Z,3.7
2023-03-12T06:16:28.141Z,3.7
2023-03-12T06:18:26.809Z,3.7
2023-03-12T06:20:27.015Z,3.8
2023-03-12T06:22:27.584Z,3.8
2023-03-12T06:24:32.694Z,3.8
2023-03-12T06:26:27.620Z,3.9
2023-03-12T06:28:27.247Z,3.9
2023-03-12T06:30:26.785Z,3.9
2023-03-12T06:32:26.801Z,3.9
2023-03-12T06:34:26.701Z,3.9
2023-03-12T06:36:26.757Z,3.9
2023-03-12T06:38:26.850Z,4.1
2023-03-12T06:40:27.792Z,4.1
2023-03-12T06:42:26.716Z,4.1
2023-03-12T06:44:26.774Z,4.1
2023-03-12T06:46:26.803Z,4.1
2023-03-12T06:48:28.713Z,4.1
2023-03-12T06:50:26.602Z,4.2
2023-03-12T06:52:28.385Z,4.2
2023-03-12T06:54:26.537Z,4.2
2023-03-12T06:56:26.929Z,4.2
2023-03-12T06:58:26.576Z,4.2
2023-03-12T07:00:28.391Z,4.2
2023-03-12T07:02:26.712Z,4.1
2023-03-12T07:04:26.684Z,4.1
2023-03-12T07:06:26.518Z,4.1
2023-03-12T07:08:27.230Z,4.1
2023-03-12T07:10:26.581Z,4.1
2023-03-12T07:12:26.471Z,4.2
2023-03-12T07:14:26.500Z,4.2
2023-03-12T07:16:27.293Z,4.2
2023-03-12T07:18:26.612Z,4.3
2023-03-12T07:20:26.615Z,4.3
2023-03-12T07:22:26.556Z,4.3
2023-03-12T07:24:26.467Z,4.3
2023-03-12T07:26:26.356Z,4.4
2023-03-12T07:28:26.509Z,4.4
2023-03-12T07:30:26.324Z,4.5
2023-03-12T07:32:26.495Z,4.5
2023-03-12T07:34:26.529Z,4.5
2023-03-12T07:36:26.577Z,4.5
2023-03-12T07:38:26.641Z,4.5
2023-03-12T07:40:26.469Z,4.5
2023-03-12T07:42:29.913Z,4.6
2023-03-12T07:44:26.434Z,4.6
2023-03-12T07:46:26.501Z,4.6
2023-03-12T07:48:26.522Z,4.6
2023-03-12T07:50:26.758Z,4.6
2023-03-12T07:52:26.793Z,4.6
2023-03-12T07:54:26.384Z,4.7
2023-03-12T07:56:26.689Z,4.7
2023-03-12T07:58:26.580Z,4.7
2023-03-12T08:00:28.020Z,4.7
2023-03-12T08:02:26.574Z,4.8
2023-03-12T08:04:26.860Z,4.8
2023-03-12T08:06:26.677Z,4.8
2023-03-12T08:08:27.163Z,4.8
2023-03-12T08:10:26.545Z,4.8
2023-03-12T08:12:27.179Z,4.8
2023-03-12T08:14:26.921Z,4.8
2023-03-12T08:16:26.549Z,4.8
2023-03-12T08:18:26.960Z,4.8
2023-03-12T08:20:26.603Z,4.8
2023-03-12T08:22:26.492Z,4.8
2023-03-12T08:24:26.450Z,4.8
2023-03-12T08:26:26.653Z,4.8
2023-03-12T08:28:26.564Z,4.8
2023-03-12T08:30:29.145Z,4.8
2023-03-12T08:32:27.090Z,4.9
2023-03-12T08:34:26.410Z,4.9
2023-03-12T08:36:26.686Z,4.9
2023-03-12T08:38:26.720Z,4.9
2023-03-12T08:40:26.331Z,4.9
2023-03-12T08:42:26.441Z,4.8
2023-03-12T08:44:26.934Z,4.8
2023-03-12T08:46:26.470Z,4.8
2023-03-12T08:48:27.011Z,4.8
2023-03-12T08:50:26.432Z,4.8
2023-03-12T08:52:26.370Z,4.8
2023-03-12T08:54:26.357Z,4.8
2023-03-12T08:56:26.554Z,4.9
2023-03-12T08:58:27.049Z,4.9
2023-03-12T09:00:26.307Z,4.9
2023-03-12T09:02:26.479Z,4.9
2023-03-12T09:04:26.504Z,4.9
2023-03-12T09:06:26.364Z,4.9
2023-03-12T09:08:26.468Z,4.9
2023-03-12T09:10:28.778Z,4.9
2023-03-12T09:12:26.418Z,5
2023-03-12T09:16:26.685Z,5
2023-03-12T09:18:26.754Z,5
2023-03-12T09:20:26.661Z,5
2023-03-12T09:22:28.084Z,5
2023-03-12T09:24:26.490Z,5
2023-03-12T09:26:26.567Z,5
2023-03-12T09:28:26.435Z,5
2023-03-12T09:30:26.767Z,5
2023-03-12T09:32:26.809Z,5.1
2023-03-12T09:34:26.493Z,5.1
2023-03-12T09:36:26.476Z,5.1
2023-03-12T09:38:27.009Z,5.1
2023-03-12T09:40:30.368Z,5.1
2023-03-12T09:42:39.679Z,5.3
2023-03-12T09:44:32.115Z,5.4
2023-03-12T09:46:30.664Z,5.4
2023-03-12T09:48:32.198Z,5.4
2023-03-12T09:50:29.387Z,5.4
2023-03-12T09:52:32.036Z,5.4
2023-03-12T09:54:32.828Z,5.4
2023-03-12T09:56:27.029Z,5.4
2023-03-12T09:58:29.916Z,5.4
2023-03-12T10:00:31.258Z,5.4
2023-03-12T10:02:54.218Z,5.6
2023-03-12T10:04:56.295Z,5.6
2023-03-12T10:06:34.682Z,5.6
2023-03-12T10:08:35.053Z,5.6
2023-03-12T10:10:39.074Z,5.6
2023-03-12T10:12:40.561Z,5.7
2023-03-12T10:14:37.460Z,5.7
2023-03-12T10:16:42.816Z,5.7
2023-03-12T10:18:41.903Z,5.8
2023-03-12T10:20:41.205Z,5.8
2023-03-12T10:22:39.204Z,5.9
2023-03-12T10:24:42.814Z,5.8
2023-03-12T10:26:31.154Z,5.7
2023-03-12T10:28:33.669Z,5.7
2023-03-12T10:30:29.841Z,5.7
2023-03-12T10:32:36.090Z,5.6
2023-03-12T10:34:32.360Z,5.8
2023-03-12T10:36:34.031Z,5.9
2023-03-12T10:38:29.432Z,5.8
2023-03-12T10:40:29.299Z,5.8
2023-03-12T10:42:28.941Z,5.8
2023-03-12T10:44:28.178Z,5.8
2023-03-12T10:46:42.366Z,5.8
2023-03-12T10:48:27.356Z,5.8
2023-03-12T10:50:29.988Z,5.8
2023-03-12T10:52:27.213Z,5.8
2023-03-12T10:54:30.267Z,5.8
2023-03-12T10:56:27.266Z,5.8
2023-03-12T10:58:32.677Z,5.7
2023-03-12T11:00:29.939Z,5.7
2023-03-12T11:02:33.725Z,5.6
2023-03-12T11:04:30.603Z,5.5
2023-03-12T11:06:29.864Z,5.5
2023-03-12T11:08:28.888Z,5.4
2023-03-12T11:10:41.017Z,5.4
2023-03-12T11:12:29.522Z,5.5
2023-03-12T11:14:29.652Z,5.5
2023-03-12T11:16:30.060Z,5.5
2023-03-12T11:18:30.712Z,5.5
2023-03-12T11:20:29.545Z,5.5
2023-03-12T11:22:30.795Z,5.5
2023-03-12T11:24:28.384Z,5.5
2023-03-12T11:26:32.089Z,5.5
2023-03-12T11:28:35.967Z,5.5
2023-03-12T11:30:34.549Z,5.5
2023-03-12T11:32:32.724Z,5.4
2023-03-12T11:34:29.884Z,5.4
2023-03-12T11:36:43.039Z,5.4
2023-03-12T11:38:34.293Z,5.4
2023-03-12T11:40:46.238Z,5.4
2023-03-12T11:42:41.194Z,5.5
2023-03-12T11:44:35.102Z,5.5
2023-03-12T11:46:36.289Z,5.5
2023-03-12T11:48:37.027Z,5.5
2023-03-12T11:50:41.640Z,5.5
2023-03-12T11:52:36.575Z,5.5
2023-03-12T11:54:58.281Z,5.5
2023-03-12T11:56:29.729Z,5.5
2023-03-12T11:58:44.330Z,5.6
2023-03-12T12:00:36.818Z,5.6
2023-03-12T12:02:47.072Z,5.6
2023-03-12T12:04:46.031Z,5.6
2023-03-12T12:06:39.533Z,5.6
2023-03-12T12:08:42.927Z,5.7
2023-03-12T12:10:37.394Z,5.8
2023-03-12T12:12:42.477Z,5.8
2023-03-12T12:14:44.841Z,5.7
2023-03-12T12:16:41.296Z,5.6
2023-03-12T12:18:42.420Z,5.6
2023-03-12T12:20:38.929Z,5.6
2023-03-12T12:22:41.268Z,5.5
2023-03-12T12:24:40.657Z,5.4
2023-03-12T12:26:34.457Z,5.4
2023-03-12T12:28:42.294Z,5.4
2023-03-12T12:30:41.387Z,5.4
2023-03-12T12:32:40.006Z,5.4
2023-03-12T12:34:53.547Z,5.4
2023-03-12T12:36:32.905Z,5.4
2023-03-12T12:38:34.627Z,5.4
2023-03-12T12:40:34.185Z,5.4
2023-03-12T12:42:32.909Z,5.5
2023-03-12T12:44:33.529Z,5.5
2023-03-12T12:46:33.820Z,5.5
2023-03-12T12:48:34.485Z,5.5
2023-03-12T12:50:34.234Z,5.5
2023-03-12T12:52:29.147Z,5.5
2023-03-12T12:54:35.095Z,5.5
2023-03-12T12:56:33.532Z,5.5
2023-03-12T12:58:46.169Z,5.5
2023-03-12T13:00:39.171Z,5.5
2023-03-12T13:02:30.949Z,5.4
2023-03-12T13:04:33.333Z,5.4
2023-03-12T13:06:43.783Z,5.4
2023-03-12T13:08:36.261Z,5.4
2023-03-12T13:10:57.163Z,5.4
2023-03-12T13:12:31.962Z,5.5
2023-03-12T13:14:39.612Z,5.5
2023-03-12T13:16:34.959Z,5.5
2023-03-12T13:18:29.054Z,5.5
2023-03-12T13:20:36.552Z,5.3
2023-03-12T13:22:44.115Z,5.4
2023-03-12T13:24:33.044Z,5.5
2023-03-12T13:26:37.901Z,5.5
2023-03-12T13:28:34.119Z,5.5
2023-03-12T13:30:45.887Z,5.5
2023-03-12T13:32:53.696Z,5.4
2023-03-12T13:34:32.517Z,5.4
2023-03-12T13:36:29.279Z,5.3
2023-03-12T13:38:39.135Z,5.3
2023-03-12T13:40:56.950Z,5.4
2023-03-12T13:42:39.393Z,5.4
2023-03-12T13:44:37.350Z,5.4
2023-03-12T13:46:36.181Z,5.4
2023-03-12T13:48:29.459Z,5.4
2023-03-12T13:50:31.458Z,5.2
2023-03-12T13:52:31.916Z,5.2
2023-03-12T13:54:33.681Z,4.7
2023-03-12T13:56:31.582Z,4.2
2023-03-12T13:58:30.317Z,3.8
2023-03-12T14:00:35.621Z,3.7
2023-03-12T14:02:33.006Z,3.7
2023-03-12T14:04:36.039Z,3.3
2023-03-12T14:06:35.681Z,2.8
2023-03-12T14:08:44.900Z,2.5
2023-03-12T14:10:37.498Z,2.4
2023-03-12T14:12:37.476Z,2.2
2023-03-12T14:14:48.448Z,2
2023-03-12T14:16:36.479Z,1.9
2023-03-12T14:18:31.083Z,1.8
2023-03-12T14:20:30.348Z,1.6
2023-03-12T14:22:33.014Z,1.7
2023-03-12T14:24:33.259Z,1.7
2023-03-12T14:26:32.770Z,1.7
2023-03-12T14:28:32.300Z,1.5
2023-03-12T14:30:40.596Z,1.5
2023-03-12T14:32:31.710Z,1.4
2023-03-12T14:34:35.733Z,1.4
2023-03-12T14:36:37.404Z,1.4
2023-03-12T14:38:32.390Z,1.3
2023-03-12T14:40:38.819Z,1.3
2023-03-12T14:42:31.567Z,1.1
2023-03-12T14:44:29.350Z,1.1
2023-03-12T14:46:28.489Z,1.1
2023-03-12T14:48:30.409Z,1.1
2023-03-12T14:50:36.114Z,1.1
2023-03-12T14:52:29.249Z,1
2023-03-12T14:54:28.581Z,1
2023-03-12T14:56:29.839Z,1
2023-03-12T14:58:28.420Z,1
2023-03-12T15:00:28.264Z,1
2023-03-12T15:02:30.349Z,0.8
2023-03-12T15:04:29.659Z,0.8
2023-03-12T15:06:32.066Z,0.8
2023-03-12T15:08:28.344Z,0.8
2023-03-12T15:10:29.976Z,0.8
2023-03-12T15:12:32.721Z,0.8
2023-03-12T15:14:31.525Z,0.8
2023-03-12T15:16:27.866Z,0.8
2023-03-12T15:18:30.135Z,0.6
2023-03-12T15:20:29.139Z,0.6
2023-03-12T15:22:27.487Z,0.5
2023-03-12T15:24:29.643Z,0.3
2023-03-12T15:26:29.559Z,0
2023-03-12T15:28:28.121Z,0
2023-03-12T15:30:28.614Z,0
2023-03-12T15:32:27.980Z,0
2023-03-12T15:34:30.559Z,-0.1
2023-03-12T15:36:28.937Z,-0.1
2023-03-12T15:38:26.644Z,-0.1
2023-03-12T15:40:28.568Z,-0.1
2023-03-12T15:42:28.521Z,-0.2
2023-03-12T15:44:29.244Z,-0.3
2023-03-12T15:46:27.455Z,-0.4
2023-03-12T15:48:29.680Z,-0.5
2023-03-12T15:50:30.420Z,-0.4
2023-03-12T15:52:30.065Z,-0.4
2023-03-12T15:54:28.153Z,-0.6
2023-03-12T15:56:26.553Z,-0.9
2023-03-12T15:58:28.421Z,-0.9
2023-03-12T16:00:28.184Z,-0.9
2023-03-12T16:02:46.219Z,-1
2023-03-12T16:04:24.947Z,-1
2023-03-12T16:06:26.977Z,-1
2023-03-12T16:08:30.308Z,-1
2023-03-12T16:10:26.516Z,-1.2
2023-03-12T16:12:24.664Z,-1.4
2023-03-12T16:14:28.739Z,-1.5
2023-03-12T16:16:24.325Z,-1.5
2023-03-12T16:18:24.834Z,-1.5
2023-03-12T16:20:24.069Z,-1.5
2023-03-12T16:22:23.873Z,-1.5
2023-03-12T16:24:23.855Z,-1.5
2023-03-12T16:26:23.769Z,-1.6
2023-03-12T16:28:24.185Z,-1.9
2023-03-12T16:30:26.923Z,-1.9
2023-03-12T16:32:23.520Z,-2
2023-03-12T16:34:23.421Z,-2
2023-03-12T16:36:23.072Z,-2
2023-03-12T16:38:22.923Z,-2
2023-03-12T16:40:32.912Z,-2
2023-03-12T16:42:22.787Z,-2
2023-03-12T16:44:31.556Z,-2
2023-03-12T16:46:29.522Z,-2
2023-03-12T16:48:23.739Z,-2
2023-03-12T16:50:22.592Z,-2.2
2023-03-12T16:52:24.372Z,-2.4
2023-03-12T16:54:21.770Z,-2.3
2023-03-12T16:56:23.854Z,-2.4
2023-03-12T16:58:23.557Z,-2.4
2023-03-12T17:00:23.674Z,-2.4
2023-03-12T17:02:21.435Z,-2.4
2023-03-12T17:04:21.215Z,-2.4
2023-03-12T17:06:23.347Z,-2.5
2023-03-12T17:08:20.720Z,-2.6
2023-03-12T17:10:21.395Z,-2.6
2023-03-12T17:12:28.496Z,-2.6
2023-03-12T17:14:22.073Z,-2.6
2023-03-12T17:16:20.449Z,-2.6
2023-03-12T17:18:20.678Z,-2.6
2023-03-12T17:20:21.680Z,-2.6
2023-03-12T17:22:20.506Z,-2.6
2023-03-12T17:24:19.649Z,-2.6
2023-03-12T17:26:19.682Z,-2.6
2023-03-12T17:28:19.419Z,-2.6
2023-03-12T17:30:19.600Z,-2.6
2023-03-12T17:32:19.270Z,-2.7
2023-03-12T17:34:18.985Z,-2.8
2023-03-12T17:36:18.813Z,-2.8
2023-03-12T17:38:18.720Z,-2.8
2023-03-12T17:40:19.032Z,-2.8
2023-03-12T17:42:18.376Z,-2.8
2023-03-12T17:44:18.240Z,-2.8
2023-03-12T17:46:18.224Z,-2.6
2023-03-12T17:48:18.585Z,-2.7
2023-03-12T17:50:18.394Z,-2.7
2023-03-12T17:52:17.670Z,-2.6
2023-03-12T17:54:17.557Z,-2.7
2023-03-12T17:56:17.528Z,-2.7
2023-03-12T17:58:17.205Z,-2.9
2023-03-12T18:00:17.948Z,-2.9
2023-03-12T18:02:17.031Z,-3.1
2023-03-12T18:04:16.932Z,-3.2
2023-03-12T18:06:18.742Z,-3.2
2023-03-12T18:08:16.577Z,-3.4
2023-03-12T18:10:17.378Z,-3.4
2023-03-12T18:12:16.262Z,-3.5
2023-03-12T18:14:16.133Z,-3.5
2023-03-12T18:16:16.847Z,-3.5
2023-03-12T18:18:15.655Z,-3.4
2023-03-12T18:20:21.310Z,-3.4
2023-03-12T18:22:15.391Z,-3.5
2023-03-12T18:24:15.284Z,-3.6
2023-03-12T18:26:15.096Z,-3.5
2023-03-12T18:28:14.935Z,-3.6
2023-03-12T18:30:14.938Z,-3.6
2023-03-12T18:32:14.646Z,-3.5
2023-03-12T18:34:14.865Z,-3.5
2023-03-12T18:36:14.300Z,-3.5
2023-03-12T18:38:14.111Z,-3.5
2023-03-12T18:40:14.003Z,-3.5
2023-03-12T18:42:13.834Z,-3.6
2023-03-12T18:44:13.576Z,-3.7
2023-03-12T18:46:13.740Z,-3.7
2023-03-12T18:48:13.269Z,-3.7
2023-03-12T18:50:12.986Z,-3.7
2023-03-12T18:52:12.865Z,-3.6
2023-03-12T18:54:12.990Z,-3.7
2023-03-12T18:56:12.989Z,-3.7
2023-03-12T18:58:12.578Z,-3.7
2023-03-12T19:00:14.804Z,-3.7
2023-03-12T19:02:12.255Z,-3.8
2023-03-12T19:04:16.152Z,-3.8
2023-03-12T19:06:14.089Z,-3.9
2023-03-12T19:08:12.279Z,-3.8
2023-03-12T19:10:12.702Z,-3.8
2023-03-12T19:12:11.448Z,-3.9
2023-03-12T19:14:11.124Z,-3.6
2023-03-12T19:16:11.900Z,-3.6
2023-03-12T19:18:10.903Z,-3.6
2023-03-12T19:20:12.131Z,-3.6
2023-03-12T19:22:10.431Z,-3.7
2023-03-12T19:24:10.338Z,-3.5
2023-03-12T19:26:10.281Z,-3.7
2023-03-12T19:28:09.975Z,-3.6
2023-03-12T19:30:11.214Z,-3.6
2023-03-12T19:32:09.844Z,-3.6
2023-03-12T19:34:09.497Z,-3.6
2023-03-12T19:36:09.544Z,-3.6
2023-03-12T19:38:09.232Z,-3.6
2023-03-12T19:40:10.161Z,-3.6
2023-03-12T19:42:08.939Z,-3.5
2023-03-12T19:44:08.674Z,-3.5
2023-03-12T19:46:08.947Z,-3.5
2023-03-12T19:48:08.362Z,-3.6
2023-03-12T19:50:10.558Z,-3.7
2023-03-12T19:52:09.873Z,-3.7
2023-03-12T19:54:07.870Z,-3.7
2023-03-12T19:56:08.029Z,-3.6
2023-03-12T19:58:07.497Z,-3.6
2023-03-12T20:00:09.494Z,-3.6
2023-03-12T20:02:09.595Z,-3.7
2023-03-12T20:04:07.017Z,-3.7
2023-03-12T20:06:07.866Z,-3.7
2023-03-12T20:08:06.660Z,-3.5
2023-03-12T20:10:08.318Z,-3.7
2023-03-12T20:12:06.679Z,-3.6
2023-03-12T20:14:06.199Z,-3.6
2023-03-12T20:16:07.088Z,-3.8
2023-03-12T20:18:05.889Z,-3.8
2023-03-12T20:20:07.405Z,-3.8
2023-03-12T20:22:06.216Z,-3.9
2023-03-12T20:24:05.802Z,-3.9
2023-03-12T20:26:05.257Z,-3.7
2023-03-12T20:28:05.003Z,-3.8
2023-03-12T20:30:06.094Z,-3.8
2023-03-12T20:32:05.109Z,-3.7
2023-03-12T20:34:04.425Z,-3.7
2023-03-12T20:36:05.781Z,-3.6
2023-03-12T20:38:04.128Z,-3.7
2023-03-12T20:40:04.957Z,-3.7
2023-03-12T20:42:04.063Z,-3.6
2023-03-12T20:44:03.650Z,-3.6
2023-03-12T20:46:03.825Z,-3.6
2023-03-12T20:48:03.726Z,-3.6
2023-03-12T20:50:03.735Z,-3.6
2023-03-12T20:52:03.027Z,-3.5
2023-03-12T20:54:02.952Z,-3.6
2023-03-12T20:56:03.593Z,-3.6
2023-03-12T20:58:03.107Z,-3.6
2023-03-12T21:00:04.095Z,-3.6
2023-03-12T21:02:02.219Z,-3.6
2023-03-12T21:04:01.941Z,-3.6
2023-03-12T21:06:02.361Z,-3.6
2023-03-12T21:08:01.633Z,-3.6
2023-03-12T21:10:01.512Z,-3.6
2023-03-12T21:12:01.338Z,-3.5
2023-03-12T21:14:01.202Z,-3.5
2023-03-12T21:16:03.799Z,-3.4
2023-03-12T21:18:00.806Z,-3.5
2023-03-12T21:20:01.657Z,-3.5
2023-03-12T21:22:00.528Z,-3.5
2023-03-12T21:24:00.445Z,-3.5
2023-03-12T21:26:02.562Z,-3.5
2023-03-12T21:28:00.169Z,-3.5
2023-03-12T21:30:00.063Z,-3.5
2023-03-12T21:31:59.838Z,-3.5
2023-03-12T21:33:59.633Z,-3.5
2023-03-12T21:35:59.609Z,-3.5
2023-03-12T21:37:59.253Z,-3.6
2023-03-12T21:39:59.088Z,-3.6
2023-03-12T21:41:58.920Z,-3.7
2023-03-12T21:44:00.588Z,-3.7
2023-03-12T21:46:03.218Z,-3.7
2023-03-12T21:47:58.475Z,-3.7
2023-03-12T21:49:58.365Z,-3.7
2023-03-12T21:51:58.051Z,-3.8
2023-03-12T21:53:58.408Z,-3.8
2023-03-12T21:55:59.651Z,-3.8
2023-03-12T21:57:57.572Z,-3.9
2023-03-12T21:59:57.449Z,-3.9
2023-03-12T22:01:58.107Z,-3.9
2023-03-12T22:03:58.590Z,-3.9
2023-03-12T22:05:56.934Z,-3.8
2023-03-12T22:07:56.918Z,-3.8
2023-03-12T22:09:56.714Z,-3.8
2023-03-12T22:11:56.424Z,-3.8
2023-03-12T22:13:56.225Z,-3.8
2023-03-12T22:15:57.907Z,-3.8
2023-03-12T22:17:56.042Z,-4
2023-03-12T22:19:55.807Z,-4
2023-03-12T22:21:55.634Z,-3.9
2023-03-12T22:23:55.747Z,-3.9
2023-03-12T22:25:58.938Z,-3.9
2023-03-12T22:27:55.125Z,-3.8
2023-03-12T22:29:55.130Z,-3.8
2023-03-12T22:31:54.887Z,-3.9
2023-03-12T22:33:55.344Z,-3.7
2023-03-12T22:35:55.086Z,-3.7
2023-03-12T22:37:55.829Z,-3.7
2023-03-12T22:39:54.268Z,-3.9
2023-03-12T22:41:53.995Z,-3.9
2023-03-12T22:43:55.810Z,-3.9
2023-03-12T22:45:53.685Z,-4.1
2023-03-12T22:47:53.537Z,-3.9
2023-03-12T22:49:53.290Z,-4
2023-03-12T22:51:53.051Z,-3.9
2023-03-12T22:53:53.172Z,-4
2023-03-12T22:55:56.877Z,-4
2023-03-12T22:57:52.599Z,-4
2023-03-12T22:59:52.480Z,-4
2023-03-12T23:01:52.209Z,-3.9
2023-03-12T23:03:52.365Z,-3.9
2023-03-12T23:05:51.881Z,-4
2023-03-12T23:07:51.801Z,-4
2023-03-12T23:09:51.639Z,-4
2023-03-12T23:11:51.481Z,-4
2023-03-12T23:13:52.056Z,-4.1
2023-03-12T23:15:51.539Z,-4.1
2023-03-12T23:17:50.950Z,-4
2023-03-12T23:19:50.792Z,-4
2023-03-12T23:21:50.637Z,-4.1
2023-03-12T23:23:51.549Z,-4.1
2023-03-12T23:25:52.261Z,-4.1
2023-03-12T23:27:50.114Z,-4.3
2023-03-12T23:29:50.065Z,-4.1
2023-03-12T23:31:49.719Z,-4.2
2023-03-12T23:33:49.815Z,-4.2
2023-03-12T23:35:58.447Z,-4.2
2023-03-12T23:37:49.718Z,-4.2
2023-03-12T23:39:54.825Z,-4.2
2023-03-12T23:41:48.892Z,-4.2
2023-03-12T23:43:48.921Z,-4.2
2023-03-12T23:45:55.302Z,-4.1
2023-03-12T23:47:48.250Z,-4.1
2023-03-12T23:49:48.179Z,-4.2
2023-03-12T23:51:47.951Z,-4.2
2023-03-12T23:53:50.272Z,-4.2
2023-03-12T23:55:56.093Z,-4.2
2023-03-12T23:57:47.397Z,-4.2
2023-03-12T23:59:47.430Z,-4.2
